Atlantic City, Wyoming
Current Conditions -  °F | °C
As of 12:55 PM on Wednesday 26 Nov 2014 (Local Time) from KFWZ Reporting Station
Clear Clear  
Wind Chill: 28°   Ceiling: Unl
Heat Index: 37°   Visibility: 10mi
Dew Point: 28°   Wind: 17mph
Humidity: 70%   Direction: 270°W
Pressure: 30.12"   Gusts: 28mph
Location:  42.6143°N, 108.586°W
Report Text: KFWZ 261955Z AUTO 27015G24KT 10SM CLR 03/M02 A3012 RMK AO2
Loading
Personal Weather Stations






























Interactive Weather Map New forecast layout! Learn more

10-Day Weather Forecast

Advertisements
Track Severe Weather on mobile